createdAt,value
2019-01-25T00:02:23.720Z,20.07
2019-01-25T00:04:56.349Z,20.90
2019-01-25T00:07:29.035Z,22.63
2019-01-25T00:10:01.761Z,22.17
2019-01-25T00:12:35.708Z,24.30
2019-01-25T00:15:10.753Z,26.10
2019-01-25T00:17:43.515Z,26.20
2019-01-25T00:20:16.172Z,24.23
2019-01-25T00:22:48.904Z,26.70
2019-01-25T00:25:21.630Z,24.20
2019-01-25T00:28:03.244Z,25.57
2019-01-25T00:30:35.508Z,25.40
2019-01-25T00:33:08.262Z,25.17
2019-01-25T00:35:41.029Z,24.27
2019-01-25T00:38:13.770Z,24.53
2019-01-25T00:40:47.223Z,25.50
2019-01-25T00:43:26.314Z,25.40
2019-01-25T00:45:59.068Z,26.43
2019-01-25T00:48:31.823Z,28.70
2019-01-25T00:51:04.611Z,26.73
2019-01-25T00:53:44.163Z,29.03
2019-01-25T00:56:16.810Z,30.50
2019-01-25T00:58:49.702Z,28.07
2019-01-25T01:01:27.077Z,28.53
2019-01-25T01:03:59.787Z,29.10
2019-01-25T01:06:32.499Z,30.30
2019-01-25T01:09:06.002Z,29.83
2019-01-25T01:11:38.727Z,30.70
2019-01-25T01:14:18.739Z,30.10
2019-01-25T01:16:51.512Z,33.93
2019-01-25T01:19:24.365Z,33.00
2019-01-25T01:21:57.241Z,32.70
2019-01-25T01:24:36.746Z,32.63
2019-01-25T01:27:09.884Z,32.23
2019-01-25T01:29:43.137Z,32.93
2019-01-25T01:32:15.737Z,31.40
2019-01-25T01:34:55.654Z,32.33
2019-01-25T01:37:28.276Z,32.37
2019-01-25T01:40:01.020Z,31.60
2019-01-25T01:42:33.631Z,33.10
2019-01-25T01:45:06.364Z,32.30
2019-01-25T01:47:39.133Z,34.00
2019-01-25T01:50:20.014Z,33.60
2019-01-25T01:52:53.653Z,33.17
2019-01-25T01:55:28.496Z,34.27
2019-01-25T01:58:01.067Z,34.53
2019-01-25T02:00:47.020Z,34.50
2019-01-25T02:03:19.692Z,33.20
2019-01-25T02:05:52.659Z,36.43
2019-01-25T02:08:25.327Z,33.63
2019-01-25T02:10:58.066Z,33.27
2019-01-25T02:13:30.709Z,33.80
2019-01-25T02:16:10.064Z,34.50
2019-01-25T02:18:42.756Z,34.17
2019-01-25T02:21:15.795Z,35.07
2019-01-25T02:23:48.447Z,33.63
2019-01-25T02:26:21.312Z,36.53
2019-01-25T02:28:54.082Z,32.00
2019-01-25T02:31:26.862Z,32.50
2019-01-25T02:34:00.705Z,33.63
2019-01-25T02:36:40.349Z,34.77
2019-01-25T02:39:13.062Z,32.77
2019-01-25T02:41:45.807Z,35.40
2019-01-25T02:44:18.483Z,34.90
2019-01-25T02:46:51.227Z,33.80
2019-01-25T02:49:23.908Z,33.30
2019-01-25T02:52:03.646Z,32.33
2019-01-25T02:54:36.339Z,34.20
2019-01-25T02:57:16.148Z,33.60
2019-01-25T02:59:48.745Z,37.23
2019-01-25T03:02:28.713Z,32.73
2019-01-25T03:05:01.371Z,32.00
2019-01-25T03:07:34.013Z,37.53
2019-01-25T03:10:07.700Z,33.07
2019-01-25T03:12:47.042Z,35.47
2019-01-25T03:15:22.349Z,35.10
2019-01-25T03:17:55.116Z,34.00
2019-01-25T03:20:27.693Z,37.83
2019-01-25T03:23:00.462Z,38.40
2019-01-25T03:25:33.233Z,33.07
2019-01-25T03:28:13.225Z,37.80
2019-01-25T03:30:45.819Z,40.13
2019-01-25T03:33:18.638Z,37.23
2019-01-25T03:35:51.315Z,38.63
2019-01-25T03:38:30.317Z,56.30
2019-01-25T03:41:02.964Z,39.03
2019-01-25T03:43:35.688Z,36.30
2019-01-25T03:46:08.399Z,35.20
2019-01-25T03:48:47.711Z,34.90
2019-01-25T03:51:20.350Z,35.63
2019-01-25T03:53:53.226Z,36.33
2019-01-25T03:56:25.903Z,36.20
2019-01-25T03:58:58.595Z,36.90
2019-01-25T04:01:31.350Z,36.57
2019-01-25T04:04:10.333Z,39.67
2019-01-25T04:06:42.970Z,36.87
2019-01-25T04:09:21.914Z,36.00
2019-01-25T04:11:54.590Z,37.10
2019-01-25T04:14:34.160Z,38.00
2019-01-25T04:17:06.778Z,35.40
2019-01-25T04:19:45.940Z,39.37
2019-01-25T04:22:18.607Z,39.97
2019-01-25T04:24:51.469Z,38.10
2019-01-25T04:27:24.075Z,38.30
2019-01-25T04:29:56.837Z,36.83
2019-01-25T04:32:29.521Z,40.40
2019-01-25T04:35:02.262Z,42.07
2019-01-25T04:37:34.957Z,38.33
2019-01-25T04:40:08.367Z,37.37
2019-01-25T04:42:41.538Z,38.03
2019-01-25T04:45:16.107Z,45.60
2019-01-25T04:47:48.918Z,39.10
2019-01-25T04:50:23.416Z,36.77
2019-01-25T04:52:56.335Z,38.87
2019-01-25T04:55:38.409Z,40.00
2019-01-25T04:58:13.886Z,37.27
2019-01-25T05:00:53.026Z,38.03
2019-01-25T05:03:27.107Z,37.90
2019-01-25T05:06:13.590Z,38.40
2019-01-25T05:08:46.342Z,38.10
2019-01-25T05:11:22.353Z,38.53
2019-01-25T05:13:55.000Z,38.67
2019-01-25T05:16:27.809Z,35.47
2019-01-25T05:19:00.478Z,38.93
2019-01-25T05:21:40.340Z,38.07
2019-01-25T05:24:14.672Z,39.17
2019-01-25T05:26:47.387Z,38.23
2019-01-25T05:29:21.426Z,38.00
2019-01-25T05:31:54.340Z,40.80
2019-01-25T05:34:26.977Z,42.30
2019-01-25T05:36:59.767Z,39.70
2019-01-25T05:39:32.459Z,38.77
2019-01-25T05:42:05.119Z,38.37
2019-01-25T05:44:37.823Z,39.60
2019-01-25T05:47:14.163Z,40.47
2019-01-25T05:49:46.784Z,39.93
2019-01-25T05:52:23.709Z,38.23
2019-01-25T05:54:56.280Z,38.40
2019-01-25T05:57:29.005Z,39.67
2019-01-25T06:00:01.641Z,38.70
2019-01-25T06:02:40.631Z,38.83
2019-01-25T06:05:13.299Z,36.10
2019-01-25T06:07:46.244Z,39.23
2019-01-25T06:10:18.950Z,39.00
2019-01-25T06:12:55.488Z,39.07
2019-01-25T06:15:31.589Z,37.57
2019-01-25T06:18:06.189Z,37.27
2019-01-25T06:20:38.868Z,39.17
2019-01-25T06:23:11.595Z,37.50
2019-01-25T06:25:44.293Z,36.80
2019-01-25T06:28:23.647Z,38.60
2019-01-25T06:30:56.259Z,40.50
2019-01-25T06:33:29.047Z,38.43
2019-01-25T06:36:01.779Z,37.53
2019-01-25T06:38:41.275Z,38.80
2019-01-25T06:41:13.896Z,38.73
2019-01-25T06:43:46.610Z,37.70
2019-01-25T06:46:19.346Z,38.73
2019-01-25T06:48:58.738Z,37.87
2019-01-25T06:51:31.363Z,39.80
2019-01-25T06:54:10.465Z,39.80
2019-01-25T06:56:43.070Z,40.70
2019-01-25T06:59:18.287Z,38.67
2019-01-25T07:02:09.786Z,38.03
2019-01-25T07:04:42.523Z,37.10
2019-01-25T07:07:26.593Z,37.03
2019-01-25T07:10:00.315Z,38.63
2019-01-25T07:12:33.028Z,34.47
2019-01-25T07:15:05.779Z,37.33
2019-01-25T07:17:38.444Z,38.07
2019-01-25T07:20:14.121Z,44.77
2019-01-25T07:22:46.782Z,39.13
2019-01-25T07:25:19.498Z,40.47
2019-01-25T07:27:52.165Z,40.47
2019-01-25T07:30:24.916Z,38.70
2019-01-25T07:32:57.560Z,38.87
2019-01-25T07:35:37.005Z,39.97
2019-01-25T07:38:09.845Z,46.03
2019-01-25T07:40:49.097Z,40.60
2019-01-25T07:43:21.895Z,42.43
2019-01-25T07:45:54.698Z,41.10
2019-01-25T07:48:27.399Z,41.03
2019-01-25T07:51:00.107Z,38.83
2019-01-25T07:53:32.680Z,39.20
2019-01-25T07:56:05.489Z,38.50
2019-01-25T07:58:38.216Z,39.40
2019-01-25T08:01:10.944Z,38.43
2019-01-25T08:03:43.664Z,39.23
2019-01-25T08:06:16.576Z,39.73
2019-01-25T08:08:49.356Z,39.93
2019-01-25T08:11:22.241Z,39.10
2019-01-25T08:13:54.966Z,38.70
2019-01-25T08:16:27.762Z,38.93
2019-01-25T08:19:00.351Z,39.77
2019-01-25T08:21:33.053Z,38.20
2019-01-25T08:24:05.760Z,38.83
2019-01-25T08:26:45.260Z,38.77
2019-01-25T08:29:17.950Z,39.50
2019-01-25T08:31:50.731Z,39.40
2019-01-25T08:34:23.383Z,38.90
2019-01-25T08:36:56.136Z,41.37
2019-01-25T08:39:28.740Z,38.57
2019-01-25T08:42:15.271Z,39.27
2019-01-25T08:44:42.432Z,37.50
2019-01-25T08:47:15.171Z,38.27
2019-01-25T08:49:47.823Z,37.53
2019-01-25T08:52:20.532Z,36.77
2019-01-25T08:54:53.229Z,39.80
2019-01-25T08:57:32.725Z,41.43
2019-01-25T09:00:08.692Z,38.90
2019-01-25T09:02:48.337Z,36.57
2019-01-25T09:05:21.230Z,37.00
2019-01-25T09:08:00.076Z,38.73
2019-01-25T09:10:32.716Z,38.53
2019-01-25T09:13:18.767Z,42.37
2019-01-25T09:15:51.378Z,38.50
2019-01-25T09:18:24.133Z,39.37
2019-01-25T09:20:56.827Z,43.23
2019-01-25T09:23:29.509Z,40.70
2019-01-25T09:26:02.205Z,39.17
2019-01-25T09:28:41.594Z,37.63
2019-01-25T09:31:14.188Z,36.40
2019-01-25T09:33:46.965Z,37.07
2019-01-25T09:36:19.648Z,36.57
2019-01-25T09:38:52.352Z,36.90
2019-01-25T09:41:25.010Z,35.93
2019-01-25T09:43:57.645Z,37.33
2019-01-25T09:46:30.332Z,37.03
2019-01-25T09:49:03.174Z,39.10
2019-01-25T09:51:35.862Z,37.73
2019-01-25T09:54:08.648Z,38.60
2019-01-25T09:56:41.315Z,38.10
2019-01-25T09:59:14.016Z,37.53
2019-01-25T10:01:46.681Z,41.23
2019-01-25T10:04:19.394Z,38.57
2019-01-25T10:06:52.001Z,40.33
2019-01-25T10:09:24.802Z,39.20
2019-01-25T10:11:57.461Z,35.20
2019-01-25T10:14:36.830Z,39.90
2019-01-25T10:17:09.489Z,41.67
2019-01-25T10:19:49.188Z,38.13
2019-01-25T10:22:21.870Z,36.30
2019-01-25T10:25:00.764Z,35.40
2019-01-25T10:27:33.366Z,36.70
2019-01-25T10:30:06.117Z,37.27
2019-01-25T10:32:38.807Z,40.57
2019-01-25T10:35:12.933Z,63.67
2019-01-25T10:37:45.581Z,39.03
2019-01-25T10:40:20.671Z,37.57
2019-01-25T10:42:53.767Z,34.73
2019-01-25T10:45:34.934Z,35.63
2019-01-25T10:48:07.909Z,37.90
2019-01-25T10:50:47.300Z,35.50
2019-01-25T10:53:20.024Z,35.57
2019-01-25T10:55:59.283Z,33.90
2019-01-25T10:58:31.973Z,30.73
2019-01-25T11:01:04.697Z,35.03
2019-01-25T11:03:37.451Z,33.30
2019-01-25T11:06:10.175Z,33.47
2019-01-25T11:08:42.859Z,32.60
2019-01-25T11:11:15.590Z,34.40
2019-01-25T11:13:48.316Z,36.57
2019-01-25T11:16:21.297Z,36.03
2019-01-25T11:18:54.016Z,34.90
2019-01-25T11:21:26.678Z,35.87
2019-01-25T11:23:59.353Z,39.13
2019-01-25T11:26:32.102Z,35.53
2019-01-25T11:29:04.775Z,38.27
2019-01-25T11:31:43.906Z,36.63
2019-01-25T11:34:16.550Z,38.37
2019-01-25T11:36:49.311Z,37.80
2019-01-25T11:39:21.920Z,38.40
2019-01-25T11:41:54.706Z,40.50
2019-01-25T11:44:27.372Z,37.90
2019-01-25T11:47:00.199Z,38.93
2019-01-25T11:49:32.843Z,39.27
2019-01-25T11:52:05.616Z,40.20
2019-01-25T11:54:38.241Z,40.57
2019-01-25T11:57:10.908Z,38.37
2019-01-25T11:59:43.623Z,39.70
2019-01-25T12:02:20.847Z,39.07
2019-01-25T12:04:50.557Z,37.60
2019-01-25T12:07:30.245Z,37.37
2019-01-25T12:10:02.960Z,38.70
2019-01-25T12:12:35.616Z,39.07
2019-01-25T12:15:09.173Z,38.63
2019-01-25T12:17:42.056Z,37.67
2019-01-25T12:20:21.926Z,36.27
2019-01-25T12:22:54.640Z,39.10
2019-01-25T12:25:27.432Z,37.03
2019-01-25T12:28:06.631Z,38.43
2019-01-25T12:30:40.850Z,38.50
2019-01-25T12:33:14.886Z,38.13
2019-01-25T12:35:48.375Z,37.23
2019-01-25T12:38:21.164Z,36.43
2019-01-25T12:40:56.307Z,39.90
2019-01-25T12:43:34.865Z,41.17
2019-01-25T12:46:07.595Z,38.07
2019-01-25T12:48:43.119Z,40.43
2019-01-25T12:51:23.605Z,39.73
2019-01-25T12:54:05.231Z,39.73
2019-01-25T12:56:38.181Z,40.23
2019-01-25T12:59:12.379Z,39.43
2019-01-25T13:01:45.170Z,39.83
2019-01-25T13:04:17.944Z,36.67
2019-01-25T13:06:50.647Z,36.57
2019-01-25T13:09:23.535Z,34.93
2019-01-25T13:11:56.203Z,36.27
2019-01-25T13:14:36.556Z,35.43
2019-01-25T13:17:09.265Z,37.90
2019-01-25T13:19:42.312Z,38.47
2019-01-25T13:22:14.940Z,39.30
2019-01-25T13:24:53.794Z,37.03
2019-01-25T13:27:26.560Z,38.47
2019-01-25T13:29:59.487Z,38.93
2019-01-25T13:32:32.202Z,33.47
2019-01-25T13:35:11.901Z,32.47
2019-01-25T13:37:45.705Z,31.17
2019-01-25T13:40:26.718Z,30.07
2019-01-25T13:42:59.541Z,31.53
2019-01-25T13:45:33.654Z,32.10
2019-01-25T13:48:06.753Z,29.93
2019-01-25T13:50:39.465Z,29.67
2019-01-25T13:53:12.221Z,28.63
2019-01-25T13:55:46.702Z,28.77
2019-01-25T13:58:24.724Z,28.47
2019-01-25T14:01:04.000Z,29.43
2019-01-25T14:03:36.613Z,27.87
2019-01-25T14:06:09.353Z,27.87
2019-01-25T14:08:41.988Z,29.30
2019-01-25T14:11:31.766Z,27.90
2019-01-25T14:14:17.177Z,28.73
2019-01-25T14:16:56.152Z,26.37
2019-01-25T14:19:28.809Z,26.63
2019-01-25T14:22:12.423Z,27.73
2019-01-25T14:24:45.132Z,25.87
2019-01-25T14:27:17.910Z,25.53
2019-01-25T14:29:50.683Z,23.73
2019-01-25T14:32:30.668Z,22.93
2019-01-25T14:35:03.768Z,24.83
2019-01-25T14:37:42.839Z,24.63
2019-01-25T14:40:17.876Z,20.83
2019-01-25T14:42:54.471Z,19.87
2019-01-25T14:45:27.109Z,19.97
2019-01-25T14:48:09.887Z,20.57
2019-01-25T14:50:42.559Z,20.50
2019-01-25T14:53:29.219Z,21.07
2019-01-25T14:56:03.218Z,18.40
2019-01-25T14:58:37.728Z,18.80
2019-01-25T15:01:19.069Z,19.57
2019-01-25T15:03:58.546Z,19.30
2019-01-25T15:06:31.220Z,18.73
2019-01-25T15:09:05.530Z,18.03
2019-01-25T15:11:38.537Z,18.33
2019-01-25T15:14:17.809Z,18.90
2019-01-25T15:16:50.600Z,19.20
2019-01-25T15:19:23.382Z,19.30
2019-01-25T15:21:56.138Z,19.83
2019-01-25T15:24:35.599Z,20.00
2019-01-25T15:27:08.325Z,20.57
2019-01-25T15:29:41.106Z,19.07
2019-01-25T15:32:13.820Z,18.83
2019-01-25T15:34:53.969Z,19.27
2019-01-25T15:37:26.669Z,19.53
2019-01-25T15:39:59.584Z,19.53
2019-01-25T15:42:32.302Z,16.53
2019-01-25T15:45:11.822Z,18.33
2019-01-25T15:47:47.481Z,15.27
2019-01-25T15:50:34.675Z,18.10
2019-01-25T15:53:07.500Z,16.70
2019-01-25T15:55:40.433Z,14.93
2019-01-25T15:58:13.281Z,19.03
2019-01-25T16:00:52.623Z,14.90
2019-01-25T16:03:25.420Z,13.63
2019-01-25T16:06:04.349Z,14.77
2019-01-25T16:08:37.099Z,15.27
2019-01-25T16:11:09.907Z,16.83
2019-01-25T16:13:43.202Z,15.37
2019-01-25T16:16:23.930Z,18.20
2019-01-25T16:18:56.602Z,16.47
2019-01-25T16:21:29.665Z,15.73
2019-01-25T16:24:02.330Z,15.77
2019-01-25T16:26:42.478Z,16.77
2019-01-25T16:29:15.238Z,15.47
2019-01-25T16:31:54.877Z,14.80
2019-01-25T16:34:27.624Z,17.23
2019-01-25T16:37:00.378Z,14.37
2019-01-25T16:39:33.136Z,15.70
2019-01-25T16:42:13.503Z,14.07
2019-01-25T16:44:46.198Z,14.50
2019-01-25T16:47:25.319Z,14.27
2019-01-25T16:50:00.955Z,15.23
2019-01-25T16:52:33.791Z,14.13
2019-01-25T16:55:06.512Z,13.93
2019-01-25T16:57:39.351Z,14.83
2019-01-25T17:00:20.785Z,15.17
2019-01-25T17:03:00.617Z,14.93
2019-01-25T17:05:33.317Z,15.03
2019-01-25T17:08:09.564Z,18.77
2019-01-25T17:10:42.300Z,18.30
2019-01-25T17:13:21.489Z,16.07
2019-01-25T17:15:55.468Z,18.50
2019-01-25T17:18:35.213Z,15.90
2019-01-25T17:21:08.517Z,13.33
2019-01-25T17:23:41.597Z,13.97
2019-01-25T17:26:14.978Z,15.57
2019-01-25T17:29:00.122Z,17.03
2019-01-25T17:31:34.095Z,18.10
2019-01-25T17:34:07.562Z,16.73
2019-01-25T17:36:40.330Z,16.87
2019-01-25T17:39:25.691Z,14.40
2019-01-25T17:41:59.356Z,15.03
2019-01-25T17:44:41.498Z,18.17
2019-01-25T17:47:13.802Z,17.83
2019-01-25T17:49:54.126Z,15.50
2019-01-25T17:52:28.218Z,36.40
2019-01-25T17:55:01.033Z,23.67
2019-01-25T17:57:37.286Z,20.13
2019-01-25T18:00:20.635Z,16.60
2019-01-25T18:02:53.407Z,17.90
2019-01-25T18:05:34.749Z,18.07
2019-01-25T18:08:07.892Z,17.80
2019-01-25T18:10:48.691Z,17.30
2019-01-25T18:13:21.284Z,32.17
2019-01-25T18:16:00.070Z,21.70
2019-01-25T18:18:35.391Z,18.83
2019-01-25T18:21:09.484Z,22.60
2019-01-25T18:23:42.268Z,18.60
2019-01-25T18:26:18.360Z,18.70
2019-01-25T18:29:04.245Z,19.10
2019-01-25T18:31:37.528Z,18.67
2019-01-25T18:34:10.700Z,18.07
2019-01-25T18:36:43.448Z,17.27
2019-01-25T18:39:16.132Z,19.27
2019-01-25T18:41:55.999Z,17.53
2019-01-25T18:44:28.684Z,15.77
2019-01-25T18:47:01.417Z,15.67
2019-01-25T18:49:34.109Z,17.53
2019-01-25T18:52:13.630Z,17.50
2019-01-25T18:54:46.265Z,21.10
2019-01-25T18:57:26.444Z,19.33
2019-01-25T19:00:03.079Z,16.90
2019-01-25T19:02:35.931Z,18.87
2019-01-25T19:05:09.202Z,16.33
2019-01-25T19:07:43.895Z,17.37
2019-01-25T19:10:22.848Z,17.53
2019-01-25T19:13:02.668Z,16.40
2019-01-25T19:15:35.360Z,16.83
2019-01-25T19:18:08.206Z,18.10
2019-01-25T19:20:40.924Z,15.47
2019-01-25T19:23:16.683Z,16.83
2019-01-25T19:25:49.522Z,15.93
2019-01-25T19:28:22.718Z,16.73
2019-01-25T19:30:55.469Z,17.77
2019-01-25T19:33:36.328Z,14.43
2019-01-25T19:36:09.222Z,15.13
2019-01-25T19:38:41.947Z,15.43
2019-01-25T19:41:17.243Z,13.87
2019-01-25T19:43:50.098Z,15.73
2019-01-25T19:46:22.766Z,14.83
2019-01-25T19:49:01.933Z,13.43
2019-01-25T19:51:34.648Z,17.07
2019-01-25T19:54:08.436Z,13.37
2019-01-25T19:56:41.115Z,17.10
2019-01-25T19:59:14.060Z,15.80
2019-01-25T20:01:46.744Z,14.90
2019-01-25T20:04:19.506Z,16.57
2019-01-25T20:06:52.202Z,15.70
2019-01-25T20:09:24.922Z,14.87
2019-01-25T20:11:57.572Z,16.13
2019-01-25T20:14:30.376Z,16.97
2019-01-25T20:17:03.496Z,17.40
2019-01-25T20:19:42.577Z,15.03
2019-01-25T20:22:15.256Z,16.77
2019-01-25T20:24:49.053Z,17.43
2019-01-25T20:27:21.848Z,15.60
2019-01-25T20:29:56.558Z,19.07
2019-01-25T20:32:29.285Z,18.60
2019-01-25T20:35:03.582Z,19.33
2019-01-25T20:37:36.492Z,15.70
2019-01-25T20:40:12.317Z,14.20
2019-01-25T20:42:45.147Z,15.67
2019-01-25T20:45:27.109Z,16.80
2019-01-25T20:47:55.943Z,13.53
2019-01-25T20:50:30.285Z,17.90
2019-01-25T20:53:03.445Z,17.20
2019-01-25T20:55:36.373Z,16.40
2019-01-25T20:58:09.503Z,14.97
2019-01-25T21:00:49.455Z,15.13
2019-01-25T21:03:25.778Z,15.13
2019-01-25T21:06:05.607Z,16.93
2019-01-25T21:08:39.654Z,14.97
2019-01-25T21:11:12.846Z,15.30
2019-01-25T21:13:45.554Z,16.00
2019-01-25T21:16:18.639Z,13.90
2019-01-25T21:18:52.355Z,15.27
2019-01-25T21:21:32.607Z,13.13
2019-01-25T21:24:05.725Z,20.70
2019-01-25T21:26:45.340Z,18.03
2019-01-25T21:29:18.180Z,16.03
2019-01-25T21:31:54.433Z,16.67
2019-01-25T21:34:27.483Z,16.30
2019-01-25T21:37:15.069Z,15.50
2019-01-25T21:39:47.726Z,16.03
2019-01-25T21:42:28.436Z,51.47
2019-01-25T21:45:01.665Z,18.43
2019-01-25T21:47:42.532Z,15.17
2019-01-25T21:50:17.088Z,16.37
2019-01-25T21:52:50.481Z,18.37
2019-01-25T21:55:23.713Z,14.73
2019-01-25T21:58:05.303Z,12.33
2019-01-25T22:00:38.452Z,15.77
2019-01-25T22:03:19.334Z,15.10
2019-01-25T22:05:52.537Z,16.60
2019-01-25T22:08:32.107Z,16.90
2019-01-25T22:11:05.373Z,18.37
2019-01-25T22:13:52.639Z,14.20
2019-01-25T22:16:19.671Z,15.10
2019-01-25T22:18:53.729Z,15.33
2019-01-25T22:21:27.571Z,15.57
2019-01-25T22:24:08.250Z,16.97
2019-01-25T22:26:41.238Z,14.77
2019-01-25T22:29:17.900Z,13.13
2019-01-25T22:31:50.891Z,13.50
2019-01-25T22:34:23.652Z,14.47
2019-01-25T22:36:56.819Z,14.43
2019-01-25T22:39:30.158Z,13.53
2019-01-25T22:42:03.758Z,14.97
2019-01-25T22:44:43.678Z,14.27
2019-01-25T22:47:20.438Z,13.13
2019-01-25T22:49:50.898Z,15.77
2019-01-25T22:52:23.674Z,15.10
2019-01-25T22:54:56.454Z,14.33
2019-01-25T22:57:30.315Z,13.60
2019-01-25T23:00:03.289Z,13.90
2019-01-25T23:02:37.170Z,17.43
2019-01-25T23:06:05.597Z,13.30
2019-01-25T23:08:38.355Z,14.77
2019-01-25T23:11:18.100Z,16.10
2019-01-25T23:13:50.805Z,14.03
2019-01-25T23:16:30.726Z,15.90
2019-01-25T23:19:03.569Z,15.10
2019-01-25T23:21:36.414Z,14.47
2019-01-25T23:24:09.335Z,14.47
2019-01-25T23:26:43.304Z,14.33
2019-01-25T23:29:16.273Z,16.00
2019-01-25T23:31:49.060Z,15.90
2019-01-25T23:34:22.125Z,16.67
2019-01-25T23:36:54.803Z,16.00
2019-01-25T23:39:28.619Z,15.67
2019-01-25T23:42:08.400Z,17.43
2019-01-25T23:44:41.467Z,18.83
2019-01-25T23:47:21.346Z,19.23
2019-01-25T23:49:54.185Z,18.43
2019-01-25T23:52:26.943Z,19.93
2019-01-25T23:54:59.650Z,19.10
2019-01-25T23:57:39.147Z,17.83
